Time;durP1;ratioP1;P1;durP2;ratioP2;P2;SDS_P1;SDS_P2;PMS_P1;PMS_P2;Temp;Humidity;BMP_temperature;BMP_pressure;BME280_temperature;BME280_humidity;BME280_pressure;Samples;Min_cycle;Max_cycle;Signal;HPM_P1;HPM_P2
2021/09/27 00:02:19;;;;;;;14.70;13.13;;;18.30;99.90;;;;;;5021596;28;20416;-81
2021/09/27 00:04:45;;;;;;;13.93;12.33;;;18.40;99.90;;;;;;5023002;28;20415;-81
2021/09/27 00:07:11;;;;;;;12.23;10.73;;;18.50;99.90;;;;;;5024986;28;20420;-78
2021/09/27 00:09:37;;;;;;;12.67;11.43;;;18.60;99.90;;;;;;5027016;28;20956;-79
2021/09/27 00:12:06;;;;;;;15.33;13.73;;;18.70;99.90;;;;;;5027161;28;20166;-78
2021/09/27 00:14:33;;;;;;;15.53;13.60;;;18.50;99.90;;;;;;5026775;28;20200;-78
2021/09/27 00:17:00;;;;;;;13.60;11.87;;;18.30;99.90;;;;;;5024850;28;20395;-79
2021/09/27 00:19:26;;;;;;;17.47;11.77;;;18.20;99.90;;;;;;5026921;28;20388;-78
2021/09/27 00:21:54;;;;;;;15.47;12.43;;;18.10;99.90;;;;;;5026948;28;20400;-78
2021/09/27 00:24:21;;;;;;;15.57;12.33;;;18.10;99.90;;;;;;5026979;28;20400;-78
2021/09/27 00:26:47;;;;;;;15.70;13.83;;;18.00;99.90;;;;;;5026853;28;20467;-79
2021/09/27 00:29:13;;;;;;;14.30;12.23;;;18.10;99.90;;;;;;5026816;28;20392;-78
2021/09/27 00:31:39;;;;;;;14.80;12.57;;;18.10;99.90;;;;;;5026717;28;20392;-78
2021/09/27 00:34:05;;;;;;;17.00;14.30;;;18.10;99.90;;;;;;5026419;28;20451;-78
2021/09/27 00:36:31;;;;;;;20.63;14.87;;;18.00;99.90;;;;;;5026315;28;20615;-78
2021/09/27 00:38:58;;;;;;;18.20;14.27;;;18.20;99.90;;;;;;5026807;28;20185;-78
2021/09/27 00:41:25;;;;;;;15.93;12.37;;;18.20;99.90;;;;;;5026445;28;20162;-78
2021/09/27 00:43:52;;;;;;;15.20;13.60;;;18.40;99.90;;;;;;5025794;28;20427;-78
2021/09/27 00:46:22;;;;;;;14.07;12.60;;;18.40;99.90;;;;;;5026701;28;20397;-78
2021/09/27 00:48:48;;;;;;;14.23;11.93;;;18.50;99.90;;;;;;5026490;28;20392;-78
2021/09/27 00:51:18;;;;;;;14.33;12.93;;;18.60;99.90;;;;;;5026634;28;20487;-79
2021/09/27 00:53:55;;;;;;;14.60;12.47;;;18.60;99.90;;;;;;5025435;28;20436;-78
2021/09/27 00:56:25;;;;;;;16.23;12.13;;;18.50;99.90;;;;;;5024250;28;20396;-78
2021/09/27 00:58:54;;;;;;;14.63;11.13;;;18.50;99.90;;;;;;5025332;28;20555;-79
2021/09/27 01:01:21;;;;;;;14.10;11.70;;;18.30;99.90;;;;;;5027016;28;20393;-78
2021/09/27 01:03:49;;;;;;;16.53;12.40;;;18.10;99.90;;;;;;5030084;28;20392;-78
2021/09/27 01:06:39;;;;;;;12.57;11.30;;;18.10;99.90;;;;;;5029105;28;20726;-80
2021/09/27 01:09:32;;;;;;;16.10;13.20;;;18.00;99.90;;;;;;5029037;28;20455;-78
2021/09/27 01:12:29;;;;;;;14.60;13.10;;;17.90;99.90;;;;;;5027525;28;20397;-79
2021/09/27 01:15:19;;;;;;;17.23;13.43;;;17.90;99.90;;;;;;5027732;28;20401;-79
2021/09/27 01:18:12;;;;;;;19.07;14.20;;;17.90;99.90;;;;;;5026172;28;20715;-79
2021/09/27 01:21:06;;;;;;;17.40;15.60;;;17.90;99.90;;;;;;5026715;28;20400;-80
2021/09/27 01:24:10;;;;;;;20.90;14.43;;;17.90;99.90;;;;;;5020512;28;20523;-82
2021/09/27 01:26:56;;;;;;;17.47;15.47;;;17.90;99.90;;;;;;5021433;28;20384;-81
2021/09/27 01:29:48;;;;;;;16.67;14.00;;;17.80;99.90;;;;;;5020907;28;20392;-81
2021/09/27 01:32:31;;;;;;;17.67;15.00;;;17.80;99.90;;;;;;5020609;28;20479;-81
2021/09/27 01:35:32;;;;;;;16.30;14.20;;;17.90;99.90;;;;;;5020832;28;20478;-81
2021/09/27 01:38:22;;;;;;;17.70;15.80;;;17.80;99.90;;;;;;5006446;28;20415;-81
2021/09/27 01:41:09;;;;;;;18.90;14.47;;;17.80;99.90;;;;;;5020766;28;20377;-80
2021/09/27 01:43:44;;;;;;;19.23;15.17;;;17.80;99.90;;;;;;5021491;28;20392;-81
2021/09/27 01:46:26;;;;;;;17.50;15.70;;;17.90;99.90;;;;;;5020813;28;20469;-81
2021/09/27 01:49:13;;;;;;;19.17;14.87;;;17.80;99.90;;;;;;5021455;28;20396;-81
2021/09/27 01:52:00;;;;;;;21.97;15.93;;;17.80;99.90;;;;;;5020505;28;20398;-81
2021/09/27 01:54:37;;;;;;;21.30;17.90;;;17.80;99.90;;;;;;5020523;28;20535;-81
2021/09/27 01:57:17;;;;;;;16.03;14.33;;;17.70;99.90;;;;;;5022980;28;20388;-81
2021/09/27 01:59:58;;;;;;;19.63;15.93;;;17.70;99.90;;;;;;5022583;28;20444;-81
2021/09/27 02:02:50;;;;;;;16.63;14.90;;;17.70;99.90;;;;;;5021021;28;20414;-82
2021/09/27 02:05:42;;;;;;;17.20;14.20;;;17.70;99.90;;;;;;5019808;28;20408;-82
2021/09/27 02:08:19;;;;;;;16.53;14.00;;;17.60;99.90;;;;;;5017929;28;20396;-81
2021/09/27 02:11:14;;;;;;;19.03;13.80;;;17.60;99.90;;;;;;5020470;28;20812;-81
2021/09/27 02:14:06;;;;;;;26.37;15.80;;;17.60;99.90;;;;;;5020315;28;20440;-81
2021/09/27 02:17:05;;;;;;;17.90;15.70;;;17.60;99.90;;;;;;5020497;28;20892;-81
2021/09/27 02:19:56;;;;;;;25.00;16.00;;;17.60;99.90;;;;;;5019188;28;20419;-82
2021/09/27 02:22:28;;;;;;;20.70;15.00;;;17.60;99.90;;;;;;5019940;28;20508;-82
2021/09/27 02:25:23;;;;;;;18.83;16.57;;;17.60;99.90;;;;;;5020070;28;20404;-81
2021/09/27 02:27:51;;;;;;;18.47;15.70;;;17.60;99.90;;;;;;5020445;28;20741;-81
2021/09/27 02:30:24;;;;;;;19.93;16.77;;;17.60;99.90;;;;;;5020080;28;20476;-81
2021/09/27 02:33:01;;;;;;;19.83;15.23;;;17.60;99.90;;;;;;5002691;28;20447;-81
2021/09/27 02:35:35;;;;;;;20.60;17.03;;;17.50;99.90;;;;;;5019903;28;20478;-81
2021/09/27 02:38:14;;;;;;;17.50;15.37;;;17.50;99.90;;;;;;5019908;28;20451;-81
2021/09/27 02:40:57;;;;;;;28.83;16.67;;;17.50;99.90;;;;;;5020776;28;20399;-82
2021/09/27 02:43:25;;;;;;;18.87;14.10;;;17.70;99.90;;;;;;5019528;28;20463;-81
2021/09/27 02:45:51;;;;;;;16.33;14.47;;;17.60;99.90;;;;;;5020946;28;20401;-81
2021/09/27 02:48:34;;;;;;;16.83;15.03;;;17.70;99.90;;;;;;5019390;28;20396;-79
2021/09/27 02:51:01;;;;;;;18.70;14.93;;;17.70;99.90;;;;;;5019726;28;20564;-81
2021/09/27 02:53:27;;;;;;;17.83;15.13;;;17.60;99.90;;;;;;5019350;28;20538;-81
2021/09/27 02:56:24;;;;;;;16.53;14.83;;;17.60;99.90;;;;;;5019137;28;20479;-81
2021/09/27 02:59:25;;;;;;;17.63;14.00;;;17.70;99.90;;;;;;5019067;28;20221;-81
2021/09/27 03:02:10;;;;;;;18.23;15.13;;;17.70;99.90;;;;;;5018686;28;20559;-81
2021/09/27 03:04:52;;;;;;;19.50;15.37;;;17.60;99.90;;;;;;5019088;28;20404;-81
2021/09/27 03:07:43;;;;;;;17.07;15.20;;;17.60;99.90;;;;;;5020452;28;20484;-80
2021/09/27 03:10:49;;;;;;;17.17;15.20;;;17.60;99.90;;;;;;5020194;28;20523;-81
2021/09/27 03:13:27;;;;;;;17.37;14.90;;;17.60;99.90;;;;;;5018435;28;20447;-81
2021/09/27 03:16:15;;;;;;;19.30;16.00;;;17.60;99.90;;;;;;5018914;28;20410;-81
2021/09/27 03:18:58;;;;;;;18.60;16.60;;;17.60;99.90;;;;;;5018084;28;20164;-81
2021/09/27 03:21:43;;;;;;;19.70;15.57;;;17.60;99.90;;;;;;5019405;28;20400;-81
2021/09/27 03:24:31;;;;;;;19.67;15.77;;;17.60;99.90;;;;;;5019227;28;20435;-81
2021/09/27 03:27:31;;;;;;;17.33;15.10;;;17.50;99.90;;;;;;5004116;28;20919;-81
2021/09/27 03:30:26;;;;;;;17.67;15.77;;;17.50;99.90;;;;;;5018749;28;20427;-81
2021/09/27 03:33:10;;;;;;;18.33;14.43;;;17.40;99.90;;;;;;5018677;28;20956;-81
2021/09/27 03:36:15;;;;;;;20.80;15.83;;;17.50;99.90;;;;;;5020052;28;20389;-81
2021/09/27 03:38:59;;;;;;;20.53;16.30;;;17.40;99.90;;;;;;5019855;28;20396;-81
2021/09/27 03:41:39;;;;;;;25.10;15.30;;;17.40;99.90;;;;;;5018998;28;20748;-81
2021/09/27 03:44:17;;;;;;;21.37;16.60;;;17.50;99.90;;;;;;5019079;28;20399;-81
2021/09/27 03:47:03;;;;;;;19.40;16.67;;;17.50;99.90;;;;;;5019244;28;20537;-81
2021/09/27 03:49:41;;;;;;;17.17;15.37;;;17.50;99.90;;;;;;5019088;28;20785;-81
2021/09/27 03:52:11;;;;;;;19.03;15.73;;;17.50;99.90;;;;;;5019313;28;20412;-81
2021/09/27 03:54:47;;;;;;;24.37;18.50;;;17.50;99.90;;;;;;5019555;28;20436;-83
2021/09/27 03:57:28;;;;;;;19.70;16.17;;;17.40;99.90;;;;;;5019482;28;20455;-82
2021/09/27 04:00:04;;;;;;;19.23;16.40;;;17.30;99.90;;;;;;5019124;28;20902;-81
2021/09/27 04:03:00;;;;;;;21.93;15.17;;;17.30;99.90;;;;;;5019003;28;20404;-81
2021/09/27 04:05:47;;;;;;;20.93;14.90;;;17.40;99.90;;;;;;5019021;28;20484;-81
2021/09/27 04:08:25;;;;;;;18.17;15.47;;;17.40;99.90;;;;;;5018839;28;20458;-81
2021/09/27 04:11:16;;;;;;;22.13;16.00;;;17.50;99.90;;;;;;5019337;28;20404;-81
2021/09/27 04:13:56;;;;;;;25.67;18.30;;;17.50;99.90;;;;;;5020495;28;20495;-81
2021/09/27 04:16:40;;;;;;;23.70;16.33;;;17.50;99.90;;;;;;5024339;28;20394;-82
2021/09/27 04:19:24;;;;;;;20.73;17.40;;;17.50;99.90;;;;;;5037098;28;20401;-81
2021/09/27 04:22:05;;;;;;;23.67;16.57;;;17.60;99.90;;;;;;5034904;28;20479;-82
2021/09/27 04:25:10;;;;;;;24.33;16.60;;;17.50;99.90;;;;;;5037273;28;20397;-81
2021/09/27 04:28:01;;;;;;;20.80;16.50;;;17.50;99.90;;;;;;5024374;28;20408;-82
2021/09/27 04:30:45;;;;;;;22.10;14.60;;;17.40;99.90;;;;;;5018034;28;20451;-81
2021/09/27 04:33:33;;;;;;;20.40;16.37;;;17.40;99.90;;;;;;5021498;28;20443;-81
2021/09/27 04:36:27;;;;;;;20.42;17.00;;;17.50;99.90;;;;;;5025257;28;20410;-79
2021/09/27 04:39:02;;;;;;;23.50;18.47;;;17.20;99.90;;;;;;5023727;28;20165;-79
2021/09/27 04:42:01;;;;;;;22.60;16.37;;;17.30;99.90;;;;;;5021660;28;20399;-81
2021/09/27 04:44:55;;;;;;;24.00;19.13;;;17.30;99.90;;;;;;5022267;28;20420;-82
2021/09/27 04:47:42;;;;;;;22.40;16.80;;;17.30;99.90;;;;;;5024308;28;20889;-80
2021/09/27 04:50:41;;;;;;;24.03;17.73;;;17.40;99.90;;;;;;5025107;28;20411;-80
2021/09/27 04:53:29;;;;;;;21.17;16.50;;;17.30;99.90;;;;;;5023677;28;20788;-81
2021/09/27 04:56:36;;;;;;;25.20;18.13;;;17.40;99.90;;;;;;5021708;28;20439;-81
2021/09/27 04:59:19;;;;;;;27.80;18.63;;;17.40;99.90;;;;;;5020691;28;20630;-81
2021/09/27 05:02:03;;;;;;;25.83;17.57;;;17.30;99.90;;;;;;5022128;28;20424;-81
2021/09/27 05:04:39;;;;;;;25.13;17.77;;;17.30;99.90;;;;;;5021253;28;20389;-81
2021/09/27 05:07:23;;;;;;;24.37;19.13;;;17.30;99.90;;;;;;5021520;28;20411;-81
2021/09/27 05:10:21;;;;;;;33.80;21.50;;;17.40;99.90;;;;;;5021302;28;20428;-81
2021/09/27 05:13:12;;;;;;;27.27;19.10;;;17.40;99.90;;;;;;5021143;28;20484;-81
2021/09/27 05:16:04;;;;;;;24.87;18.07;;;17.30;99.90;;;;;;5022705;28;20457;-81
2021/09/27 05:19:02;;;;;;;26.50;21.17;;;17.30;99.90;;;;;;5021654;28;20408;-81
2021/09/27 05:22:05;;;;;;;27.23;19.23;;;17.40;99.90;;;;;;5020600;28;20388;-81
2021/09/27 05:24:46;;;;;;;20.83;18.63;;;17.50;99.90;;;;;;5023979;28;20400;-79
2021/09/27 05:27:36;;;;;;;28.23;18.73;;;17.50;99.90;;;;;;5021042;28;20924;-81
2021/09/27 05:30:22;;;;;;;25.20;19.70;;;17.60;99.90;;;;;;5021122;28;20802;-80
2021/09/27 05:33:07;;;;;;;22.70;17.73;;;17.50;99.90;;;;;;5021472;28;20476;-80
2021/09/27 05:35:50;;;;;;;24.70;19.60;;;17.50;99.90;;;;;;5017976;28;20503;-81
2021/09/27 05:38:32;;;;;;;29.27;20.77;;;17.40;99.90;;;;;;5020714;28;20860;-80
2021/09/27 05:41:09;;;;;;;28.07;21.13;;;17.40;99.90;;;;;;5020859;28;20457;-81
2021/09/27 05:43:54;;;;;;;37.20;20.97;;;17.40;99.90;;;;;;5019409;28;20412;-81
2021/09/27 05:46:52;;;;;;;30.53;20.83;;;17.40;99.90;;;;;;5019056;28;20507;-81
2021/09/27 05:49:33;;;;;;;24.63;18.50;;;17.20;99.90;;;;;;5021606;28;20431;-81
2021/09/27 05:52:12;;;;;;;27.50;21.50;;;17.20;99.90;;;;;;5012636;28;20854;-81
2021/09/27 05:55:05;;;;;;;27.67;19.07;;;17.30;99.90;;;;;;5020653;28;20463;-81
2021/09/27 05:57:45;;;;;;;27.27;18.23;;;17.30;99.90;;;;;;5001598;28;20429;-81
2021/09/27 06:00:33;;;;;;;26.30;19.20;;;17.40;99.90;;;;;;5014631;28;20458;-81
2021/09/27 06:03:26;;;;;;;31.83;19.93;;;17.50;99.90;;;;;;5004136;28;20423;-81
2021/09/27 06:06:03;;;;;;;33.87;20.63;;;17.40;99.90;;;;;;5019362;28;20515;-81
2021/09/27 06:08:41;;;;;;;25.10;20.03;;;17.40;99.90;;;;;;5020112;28;20479;-81
2021/09/27 06:11:27;;;;;;;25.10;20.20;;;17.40;99.90;;;;;;5019489;28;20415;-81
2021/09/27 06:13:56;;;;;;;26.77;21.23;;;17.40;99.90;;;;;;5001517;28;20464;-81
2021/09/27 06:16:43;;;;;;;27.73;19.93;;;17.50;99.90;;;;;;5009443;28;20750;-80
2021/09/27 06:19:37;;;;;;;28.07;20.40;;;17.50;99.90;;;;;;5016391;28;20409;-80
2021/09/27 06:22:19;;;;;;;26.00;20.00;;;17.40;99.90;;;;;;5018239;28;20519;-78
2021/09/27 06:25:17;;;;;;;34.00;21.13;;;17.50;99.90;;;;;;5008832;28;20746;-82
2021/09/27 06:27:54;;;;;;;30.50;20.47;;;17.50;99.90;;;;;;5017447;28;20534;-81
2021/09/27 06:30:47;;;;;;;25.27;18.90;;;17.40;99.90;;;;;;5016606;28;20411;-81
2021/09/27 06:33:26;;;;;;;27.50;20.93;;;17.40;99.90;;;;;;5011932;28;20452;-81
2021/09/27 06:35:53;;;;;;;25.27;18.80;;;17.50;99.90;;;;;;5015134;28;20416;-81
2021/09/27 06:38:28;;;;;;;31.47;22.33;;;17.60;99.90;;;;;;5016586;28;20428;-81
2021/09/27 06:40:55;;;;;;;27.83;19.20;;;17.70;99.90;;;;;;5016359;28;20416;-81
2021/09/27 06:43:24;;;;;;;27.03;19.77;;;17.70;99.90;;;;;;5008979;28;20464;-81
2021/09/27 06:45:50;;;;;;;27.07;19.57;;;17.80;99.90;;;;;;5010347;28;20446;-81
2021/09/27 06:48:17;;;;;;;26.40;19.33;;;17.80;99.90;;;;;;5012131;28;20468;-81
2021/09/27 06:50:43;;;;;;;23.57;18.70;;;17.80;99.90;;;;;;5010712;28;20414;-79
2021/09/27 06:53:09;;;;;;;25.17;17.43;;;17.90;99.90;;;;;;5018293;28;20460;-80
2021/09/27 06:55:35;;;;;;;25.30;18.97;;;17.90;99.90;;;;;;5014026;28;20460;-81
2021/09/27 06:58:00;;;;;;;28.97;21.47;;;17.70;99.90;;;;;;5010000;28;20472;-82
2021/09/27 07:00:27;;;;;;;26.90;19.50;;;17.60;99.90;;;;;;4996444;28;20165;-81
2021/09/27 07:02:52;;;;;;;25.20;19.10;;;17.60;99.90;;;;;;5010883;28;20178;-81
2021/09/27 07:05:19;;;;;;;31.90;19.30;;;17.60;99.90;;;;;;5015743;28;20416;-80
2021/09/27 07:07:45;;;;;;;26.57;19.63;;;17.50;99.90;;;;;;5020010;28;20165;-80
2021/09/27 07:10:15;;;;;;;28.97;20.57;;;17.40;99.90;;;;;;5016325;28;20533;-82
2021/09/27 07:12:40;;;;;;;25.13;17.80;;;17.40;99.90;;;;;;5017943;28;20630;-81
2021/09/27 07:15:07;;;;;;;25.33;21.40;;;17.30;99.90;;;;;;5019143;28;20420;-82
2021/09/27 07:17:33;;;;;;;40.37;20.40;;;17.40;99.90;;;;;;5016934;28;20243;-81
2021/09/27 07:19:59;;;;;;;30.67;21.10;;;17.40;99.90;;;;;;5012060;28;20508;-81
2021/09/27 07:22:25;;;;;;;33.30;23.33;;;17.30;99.90;;;;;;5017159;28;20440;-81
2021/09/27 07:24:52;;;;;;;29.50;19.80;;;17.40;99.90;;;;;;5005549;28;20185;-81
2021/09/27 07:27:20;;;;;;;31.63;19.93;;;17.30;99.90;;;;;;5010037;28;20516;-81
2021/09/27 07:29:46;;;;;;;29.77;21.93;;;17.40;99.90;;;;;;5015491;28;20424;-81
2021/09/27 07:32:12;;;;;;;28.10;20.73;;;17.40;99.90;;;;;;5007394;28;20174;-81
2021/09/27 07:34:38;;;;;;;36.60;24.50;;;17.30;99.90;;;;;;5017145;28;20263;-81
2021/09/27 07:37:04;;;;;;;33.53;23.07;;;17.50;99.90;;;;;;5017046;28;20571;-81
2021/09/27 07:39:32;;;;;;;28.23;20.40;;;17.50;99.90;;;;;;5013318;28;20423;-81
2021/09/27 07:41:58;;;;;;;31.83;23.30;;;17.70;99.90;;;;;;5015855;28;20416;-80
2021/09/27 07:44:23;;;;;;;32.03;21.23;;;18.00;99.90;;;;;;5016230;28;20423;-79
2021/09/27 07:46:49;;;;;;;31.47;23.03;;;17.90;99.90;;;;;;5016734;28;20425;-81
2021/09/27 07:49:15;;;;;;;27.60;21.63;;;18.00;99.90;;;;;;5009166;28;20173;-81
2021/09/27 07:51:41;;;;;;;32.00;22.27;;;18.10;99.90;;;;;;5011521;28;20204;-81
2021/09/27 07:54:08;;;;;;;27.10;20.17;;;17.80;99.90;;;;;;5017251;28;20193;-81
2021/09/27 07:56:33;;;;;;;29.50;20.20;;;17.90;99.90;;;;;;5016573;28;20424;-81
2021/09/27 07:59:00;;;;;;;29.97;20.23;;;18.30;99.90;;;;;;5010952;28;20475;-81
2021/09/27 08:01:27;;;;;;;26.70;20.83;;;18.50;99.90;;;;;;5015924;28;20180;-81
2021/09/27 08:03:53;;;;;;;23.87;19.17;;;18.80;99.90;;;;;;5017609;28;20416;-81
2021/09/27 08:06:19;;;;;;;24.87;18.33;;;19.00;99.90;;;;;;5013903;28;20732;-81
2021/09/27 08:08:44;;;;;;;26.37;17.10;;;19.10;99.90;;;;;;5013640;28;20209;-81
2021/09/27 08:11:10;;;;;;;22.10;17.27;;;19.10;99.90;;;;;;5021327;28;20173;-81
2021/09/27 08:13:36;;;;;;;20.53;17.70;;;19.00;99.90;;;;;;5021292;28;20196;-81
2021/09/27 08:16:03;;;;;;;24.80;17.50;;;19.10;99.90;;;;;;5013443;28;20538;-80
2021/09/27 08:18:29;;;;;;;23.30;16.47;;;19.00;99.90;;;;;;5016095;28;20213;-81
2021/09/27 08:21:02;;;;;;;24.83;16.67;;;18.70;99.90;;;;;;5013390;28;20796;-81
2021/09/27 08:23:32;;;;;;;20.83;17.73;;;18.50;99.90;;;;;;5020233;28;20487;-80
2021/09/27 08:25:58;;;;;;;22.23;18.50;;;18.30;99.90;;;;;;5020197;28;20420;-81
2021/09/27 08:28:27;;;;;;;20.83;16.00;;;18.50;99.90;;;;;;5021792;28;20940;-81
2021/09/27 08:30:58;;;;;;;22.90;17.73;;;18.70;99.90;;;;;;5007973;28;20436;-81
2021/09/27 08:33:26;;;;;;;21.20;17.07;;;18.90;99.90;;;;;;5018311;28;20466;-81
2021/09/27 08:35:53;;;;;;;23.70;17.73;;;18.90;99.90;;;;;;5021912;28;20486;-81
2021/09/27 08:38:22;;;;;;;21.33;16.27;;;19.00;99.90;;;;;;5015647;28;20444;-79
2021/09/27 08:40:57;;;;;;;20.50;14.83;;;19.10;99.90;;;;;;5019168;28;20420;-81
2021/09/27 08:43:41;;;;;;;20.10;16.60;;;19.20;99.90;;;;;;5017463;28;20523;-81
2021/09/27 08:46:22;;;;;;;20.33;17.13;;;19.30;99.90;;;;;;5020621;28;20565;-82
2021/09/27 08:49:04;;;;;;;20.57;17.03;;;19.30;99.90;;;;;;5019585;28;20431;-81
2021/09/27 08:51:31;;;;;;;22.20;15.00;;;19.30;99.90;;;;;;5019179;28;20435;-81
2021/09/27 08:53:57;;;;;;;18.70;15.87;;;19.40;99.90;;;;;;5021281;28;20502;-81
2021/09/27 08:56:34;;;;;;;22.20;15.77;;;19.30;99.90;;;;;;5018626;28;20424;-81
2021/09/27 08:59:19;;;;;;;18.00;16.10;;;19.00;99.90;;;;;;5021334;28;20527;-81
2021/09/27 09:01:56;;;;;;;23.70;18.70;;;18.60;99.90;;;;;;5012706;28;20424;-82
2021/09/27 09:04:44;;;;;;;26.63;17.20;;;18.50;99.90;;;;;;5022337;28;20439;-81
2021/09/27 09:07:16;;;;;;;25.50;17.50;;;18.50;99.90;;;;;;5011141;28;20428;-81
2021/09/27 09:09:50;;;;;;;22.73;17.33;;;18.40;99.90;;;;;;5020562;28;20964;-80
2021/09/27 09:12:38;;;;;;;21.93;17.17;;;18.30;99.90;;;;;;5020448;28;20895;-81
2021/09/27 09:15:23;;;;;;;20.50;17.33;;;18.40;99.90;;;;;;5013821;28;20449;-81
2021/09/27 09:18:03;;;;;;;27.20;19.20;;;18.50;99.90;;;;;;5019335;28;20412;-81
2021/09/27 09:20:44;;;;;;;22.33;16.97;;;18.70;99.90;;;;;;5017929;28;20511;-81
2021/09/27 09:23:17;;;;;;;18.73;16.20;;;19.00;99.90;;;;;;5015391;28;20427;-81
2021/09/27 09:25:43;;;;;;;26.17;20.53;;;19.20;99.90;;;;;;5011369;28;20409;-80
2021/09/27 09:28:10;;;;;;;22.27;18.90;;;19.00;99.90;;;;;;5011649;28;20838;-80
2021/09/27 09:30:49;;;;;;;21.63;17.23;;;19.80;99.90;;;;;;5019056;28;20416;-82
2021/09/27 09:33:35;;;;;;;20.87;17.83;;;20.00;99.90;;;;;;5003749;28;20468;-81
2021/09/27 09:36:02;;;;;;;18.93;16.93;;;19.80;99.90;;;;;;5016883;28;20409;-81
2021/09/27 09:38:32;;;;;;;20.80;17.50;;;19.90;99.90;;;;;;5019466;28;20463;-81
2021/09/27 09:40:58;;;;;;;23.63;17.27;;;20.10;99.90;;;;;;5017517;28;20419;-80
2021/09/27 09:43:33;;;;;;;18.13;16.30;;;19.90;99.90;;;;;;5017682;28;20416;-81
2021/09/27 09:46:32;;;;;;;17.23;15.43;;;19.60;99.90;;;;;;5018427;28;20234;-81
2021/09/27 09:49:07;;;;;;;17.67;14.80;;;19.70;99.90;;;;;;5018554;28;20755;-82
2021/09/27 09:51:39;;;;;;;22.33;16.53;;;19.70;99.90;;;;;;5024473;28;20502;-81
2021/09/27 09:54:11;;;;;;;17.80;14.80;;;20.30;99.90;;;;;;5025757;28;20451;-82
2021/09/27 09:56:40;;;;;;;20.20;17.00;;;21.00;99.90;;;;;;5018884;28;20420;-81
2021/09/27 09:59:22;;;;;;;16.50;14.80;;;21.10;99.90;;;;;;5017331;28;20797;-81
2021/09/27 10:01:57;;;;;;;17.00;14.60;;;21.10;99.90;;;;;;5017118;28;20482;-81
2021/09/27 10:04:35;;;;;;;17.97;15.33;;;21.00;99.90;;;;;;5021570;28;20455;-79
2021/09/27 10:07:10;;;;;;;17.10;13.47;;;20.10;99.90;;;;;;5018433;28;20432;-79
2021/09/27 10:09:55;;;;;;;17.67;15.77;;;20.10;99.90;;;;;;5025809;28;20475;-78
2021/09/27 10:12:45;;;;;;;17.37;15.57;;;20.20;99.90;;;;;;5000673;28;20412;-80
2021/09/27 10:15:41;;;;;;;19.33;14.93;;;20.30;99.90;;;;;;5024649;28;20427;-78
2021/09/27 10:18:26;;;;;;;17.70;14.87;;;20.40;99.90;;;;;;5003413;28;20442;-81
2021/09/27 10:21:23;;;;;;;22.13;18.70;;;20.00;99.90;;;;;;5010073;28;20404;-81
2021/09/27 10:23:54;;;;;;;18.40;13.83;;;20.00;99.90;;;;;;5018282;28;20490;-81
2021/09/27 10:26:31;;;;;;;18.70;13.63;;;20.10;99.90;;;;;;5019871;28;20416;-82
2021/09/27 10:29:05;;;;;;;18.40;15.70;;;20.40;99.90;;;;;;5017505;28;20499;-81
2021/09/27 10:31:36;;;;;;;20.33;14.83;;;20.00;99.90;;;;;;5013545;28;20518;-81
2021/09/27 10:34:09;;;;;;;16.60;13.40;;;20.80;99.90;;;;;;5018881;28;20539;-82
2021/09/27 10:36:43;;;;;;;16.13;13.53;;;21.00;99.90;;;;;;5014978;28;20894;-81
2021/09/27 10:39:12;;;;;;;14.60;13.10;;;21.20;99.90;;;;;;5013868;28;20440;-81
2021/09/27 10:41:44;;;;;;;12.37;11.17;;;21.20;99.90;;;;;;5015237;28;20484;-81
2021/09/27 10:44:16;;;;;;;12.70;11.37;;;21.50;99.90;;;;;;5018901;28;20424;-83
2021/09/27 10:46:46;;;;;;;12.57;11.27;;;21.70;99.90;;;;;;5015441;28;20482;-81
2021/09/27 10:49:26;;;;;;;10.40;9.47;;;21.40;99.90;;;;;;5013228;28;20432;-81
2021/09/27 10:52:33;;;;;;;12.90;9.40;;;21.60;99.90;;;;;;5012463;28;20415;-80
2021/09/27 10:55:25;;;;;;;10.63;9.30;;;22.00;99.90;;;;;;5014753;28;20409;-81
2021/09/27 10:58:04;;;;;;;10.50;9.40;;;23.20;99.90;;;;;;5007960;28;20552;-81
2021/09/27 11:00:37;;;;;;;9.47;8.57;;;23.70;99.90;;;;;;5015121;28;20435;-81
2021/09/27 11:03:31;;;;;;;14.30;9.50;;;23.40;99.90;;;;;;5009908;28;20420;-81
2021/09/27 11:06:18;;;;;;;11.70;9.80;;;23.20;99.90;;;;;;5001674;28;20500;-79
2021/09/27 11:09:00;;;;;;;11.67;9.20;;;24.20;99.90;;;;;;5018496;28;20448;-79
2021/09/27 11:11:41;;;;;;;8.97;8.07;;;24.70;99.90;;;;;;5020402;28;20430;-81
2021/09/27 11:14:20;;;;;;;9.33;8.43;;;25.80;99.90;;;;;;5017615;28;20452;-82
2021/09/27 11:16:54;;;;;;;10.53;9.63;;;26.30;99.90;;;;;;5009672;28;20424;-82
2021/09/27 11:19:39;;;;;;;8.83;7.90;;;25.70;99.90;;;;;;5007574;28;20423;-81
2021/09/27 11:22:38;;;;;;;9.20;8.07;;;26.30;99.90;;;;;;5027334;23;20886;-80
2021/09/27 11:25:33;;;;;;;9.77;7.70;;;25.70;99.90;;;;;;5018899;28;20972;-79
2021/09/27 11:28:38;;;;;;;10.60;9.60;;;24.80;99.90;;;;;;5012978;28;20429;-80
2021/09/27 11:31:18;;;;;;;7.70;7.07;;;25.90;99.90;;;;;;5005942;28;20435;-80
2021/09/27 11:33:49;;;;;;;8.20;7.50;;;27.10;99.90;;;;;;5011255;28;20849;-80
2021/09/27 11:36:34;;;;;;;8.37;7.67;;;27.50;99.90;;;;;;5019027;28;20535;-79
2021/09/27 11:39:23;;;;;;;9.40;8.60;;;27.70;99.90;;;;;;5010114;28;20604;-79
2021/09/27 11:42:14;;;;;;;6.80;6.20;;;27.30;99.90;;;;;;5015454;28;20803;-78
2021/09/27 11:45:13;;;;;;;6.30;5.70;;;26.60;99.90;;;;;;5016178;28;20432;-79
2021/09/27 11:48:05;;;;;;;6.30;5.80;;;25.90;99.90;;;;;;5015637;28;20454;-79
2021/09/27 11:51:01;;;;;;;7.90;7.20;;;25.50;99.90;;;;;;5015800;28;20999;-78
2021/09/27 11:54:01;;;;;;;6.90;6.30;;;24.60;99.90;;;;;;5032658;28;20448;-83
2021/09/27 11:56:47;;;;;;;7.30;6.60;;;23.40;99.90;;;;;;5017487;28;20428;-84
2021/09/27 11:59:27;;;;;;;7.87;7.03;;;22.50;99.90;;;;;;5014795;28;20915;-83
2021/09/27 12:02:14;;;;;;;6.50;5.90;;;22.80;99.90;;;;;;5018310;28;20427;-83
2021/09/27 12:05:10;;;;;;;7.97;6.63;;;23.00;99.90;;;;;;5014811;28;20440;-82
2021/09/27 12:07:54;;;;;;;6.37;5.83;;;22.90;99.90;;;;;;5016543;28;20415;-84
2021/09/27 12:10:28;;;;;;;8.73;7.83;;;23.00;99.90;;;;;;5020107;28;20440;-82
2021/09/27 12:13:05;;;;;;;8.97;8.10;;;22.90;99.90;;;;;;5017745;28;20408;-83
2021/09/27 12:15:36;;;;;;;7.43;6.73;;;22.90;99.90;;;;;;5021586;28;20947;-83
2021/09/27 12:18:03;;;;;;;8.30;7.60;;;22.30;99.90;;;;;;5007008;28;20416;-83
2021/09/27 12:20:38;;;;;;;9.23;6.77;;;22.50;99.90;;;;;;5024849;28;20451;-83
2021/09/27 12:23:10;;;;;;;8.40;7.33;;;22.60;99.90;;;;;;5021638;28;20514;-84
2021/09/27 12:25:40;;;;;;;7.67;6.83;;;22.70;99.90;;;;;;5022293;28;20423;-83
2021/09/27 12:28:11;;;;;;;7.30;6.70;;;22.90;99.90;;;;;;5021541;28;20485;-83
2021/09/27 12:30:42;;;;;;;8.73;7.10;;;23.00;99.90;;;;;;5016583;28;20408;-82
2021/09/27 12:33:12;;;;;;;6.97;6.13;;;23.10;99.90;;;;;;5013247;28;20537;-83
2021/09/27 12:35:43;;;;;;;6.93;6.13;;;24.00;99.90;;;;;;5011804;28;20804;-82
2021/09/27 12:38:10;;;;;;;5.00;4.60;;;25.30;99.90;;;;;;5016853;28;21083;-83
2021/09/27 12:40:44;;;;;;;6.63;6.00;;;25.10;99.90;;;;;;5016632;28;20424;-84
2021/09/27 12:43:15;;;;;;;6.13;5.00;;;26.20;99.90;;;;;;5022337;28;20932;-81
2021/09/27 12:45:45;;;;;;;6.70;6.10;;;27.10;99.90;;;;;;5017609;28;20565;-84
2021/09/27 12:48:21;;;;;;;5.57;5.07;;;26.20;99.90;;;;;;5016919;28;20849;-83
2021/09/27 12:51:04;;;;;;;6.10;5.53;;;27.40;99.90;;;;;;5020372;28;20450;-84
2021/09/27 12:53:51;;;;;;;5.07;4.33;;;26.40;99.90;;;;;;5018963;28;20471;-83
2021/09/27 12:56:18;;;;;;;4.90;4.40;;;27.20;99.90;;;;;;5016543;28;20424;-82
2021/09/27 12:58:51;;;;;;;5.40;4.33;;;28.70;99.90;;;;;;5019075;28;20550;-84
2021/09/27 13:01:20;;;;;;;6.30;4.20;;;29.20;99.90;;;;;;5015338;28;20444;-83
2021/09/27 13:03:58;;;;;;;4.55;3.90;;;29.00;99.90;;;;;;5019415;28;20243;-84
2021/09/27 13:06:33;;;;;;;5.50;4.57;;;28.80;99.90;;;;;;5035862;28;20283;-83
2021/09/27 13:09:19;;;;;;;4.77;4.37;;;28.50;99.90;;;;;;5018641;28;20618;-82
2021/09/27 13:11:50;;;;;;;4.30;4.00;;;28.10;99.90;;;;;;5011636;28;20503;-84
2021/09/27 13:14:24;;;;;;;4.90;4.50;;;27.70;99.90;;;;;;5017708;28;20494;-83
2021/09/27 13:16:55;;;;;;;4.33;4.03;;;26.40;99.90;;;;;;5016204;28;20436;-83
2021/09/27 13:19:33;;;;;;;3.83;3.53;;;25.90;99.90;;;;;;5018067;28;20435;-81
2021/09/27 13:21:59;;;;;;;4.60;4.20;;;26.90;99.90;;;;;;5014210;28;20529;-83
2021/09/27 13:24:28;;;;;;;4.87;4.37;;;27.00;99.90;;;;;;5013195;28;20467;-84
2021/09/27 13:27:13;;;;;;;5.40;5.00;;;28.20;99.90;;;;;;5012169;28;20264;-83
2021/09/27 13:29:48;;;;;;;6.43;5.57;;;29.40;99.90;;;;;;5013877;28;20486;-83